Time;durP1;ratioP1;P1;durP2;ratioP2;P2;SDS_P1;SDS_P2;PMS_P1;PMS_P2;Temp;Humidity;BMP_temperature;BMP_pressure;BME280_temperature;BME280_humidity;BME280_pressure;Samples;Min_cycle;Max_cycle;Signal;HPM_P1;HPM_P2
2022/05/12 00:01:06;;;;;;;11.23;2.75;;;;;;;11.25;36.43;98436.50;5017255;28;20045;-65
2022/05/12 00:03:35;;;;;;;10.98;3.10;;;;;;;11.25;36.18;98435.69;5035719;28;20053;-67
2022/05/12 00:06:03;;;;;;;6.70;3.15;;;;;;;11.22;36.25;98434.44;5036013;28;20068;-66
2022/05/12 00:08:31;;;;;;;7.95;2.65;;;;;;;11.20;36.11;98439.56;5035934;28;20136;-66
2022/05/12 00:10:58;;;;;;;5.30;2.63;;;;;;;11.17;36.69;98434.75;5032800;28;20049;-66
2022/05/12 00:14:01;;;;;;;7.70;3.15;;;;;;;11.15;37.47;98437.06;5015597;28;20402;-65
2022/05/12 00:16:29;;;;;;;5.93;2.90;;;;;;;11.15;36.75;98431.50;5015993;28;20523;-66
2022/05/12 00:18:56;;;;;;;11.70;4.43;;;;;;;11.10;37.06;98427.03;5016165;28;20490;-66
2022/05/12 00:21:23;;;;;;;7.72;3.20;;;;;;;11.10;36.52;98429.81;5015489;28;20092;-65
2022/05/12 00:23:56;;;;;;;6.00;2.65;;;;;;;11.10;37.02;98429.00;5015945;28;20158;-65
2022/05/12 00:26:31;;;;;;;6.25;2.58;;;;;;;11.10;37.16;98431.78;5015737;28;20137;-65
2022/05/12 00:29:05;;;;;;;7.47;2.72;;;;;;;11.09;37.03;98428.19;5015445;28;20050;-66
2022/05/12 00:31:35;;;;;;;6.97;2.97;;;;;;;11.05;37.21;98430.06;5015931;28;20058;-66
2022/05/12 00:34:03;;;;;;;;;;;;;;;10.93;37.69;98423.84;5015803;28;20414;-66
2022/05/12 00:36:30;;;;;;;8.77;2.65;;;;;;;10.90;37.21;98419.00;5015950;28;20024;-66
2022/05/12 00:38:57;;;;;;;9.05;2.60;;;;;;;10.88;37.72;98418.53;5005814;28;20046;-67
2022/05/12 00:41:25;;;;;;;7.72;3.00;;;;;;;10.87;37.55;98414.16;4995975;28;20129;-66
2022/05/12 00:43:55;;;;;;;9.50;2.65;;;;;;;10.86;38.04;98418.09;4994437;28;20050;-67
2022/05/12 00:46:25;;;;;;;7.55;2.63;;;;;;;10.92;37.62;98413.88;4978725;28;20517;-67
2022/05/12 00:48:57;;;;;;;;;;;;;;;10.89;37.54;98412.63;4996019;28;20058;-65
2022/05/12 00:51:36;;;;;;;6.32;2.90;;;;;;;10.92;38.07;98419.44;4995508;28;19925;-65
2022/05/12 00:54:08;;;;;;;9.90;2.80;;;;;;;10.94;37.89;98414.31;4995417;28;20528;-66
2022/05/12 00:56:36;;;;;;;11.02;3.03;;;;;;;10.96;37.73;98412.00;4995834;28;20144;-66
2022/05/12 00:59:10;;;;;;;5.82;2.85;;;;;;;11.00;38.11;98410.09;4996138;28;20054;-66
2022/05/12 01:01:38;;;;;;;8.40;3.58;;;;;;;11.01;38.22;98408.91;5005471;28;20050;-66
2022/05/12 01:04:06;;;;;;;7.38;2.75;;;;;;;11.01;37.88;98411.69;4998453;28;20058;-66
2022/05/12 01:06:34;;;;;;;5.50;2.83;;;;;;;11.02;38.24;98402.97;5014850;28;20119;-65
2022/05/12 01:09:02;;;;;;;10.60;3.08;;;;;;;11.01;38.29;98409.72;5014751;28;20057;-66
2022/05/12 01:11:29;;;;;;;7.35;2.58;;;;;;;10.97;38.82;98400.50;5014948;28;20046;-66
2022/05/12 01:14:01;;;;;;;7.22;2.90;;;;;;;10.97;38.60;98391.34;5014473;28;20053;-66
2022/05/12 01:16:42;;;;;;;6.18;2.70;;;;;;;10.96;38.51;98400.88;5014678;28;20042;-66
2022/05/12 01:19:22;;;;;;;20.55;3.00;;;;;;;11.01;38.01;98386.63;5014783;28;20115;-65
2022/05/12 01:21:50;;;;;;;5.10;2.67;;;;;;;11.05;38.00;98385.56;5014871;28;20054;-67
2022/05/12 01:24:19;;;;;;;7.47;2.97;;;;;;;11.07;38.15;98383.22;5014946;28;20050;-66
2022/05/12 01:26:46;;;;;;;10.27;2.72;;;;;;;11.04;38.38;98385.91;5014410;28;20417;-66
2022/05/12 01:29:13;;;;;;;5.53;2.58;;;;;;;11.03;38.51;98374.00;5026251;28;20083;-67
2022/05/12 01:31:41;;;;;;;11.55;2.97;;;;;;;11.03;38.60;98378.75;5034348;28;20073;-67
2022/05/12 01:34:11;;;;;;;10.45;2.83;;;;;;;11.04;38.20;98380.34;5034357;28;20416;-67
2022/05/12 01:36:38;;;;;;;7.95;2.90;;;;;;;11.15;38.09;98381.41;5034037;28;20141;-66
2022/05/12 01:39:07;;;;;;;7.65;3.30;;;;;;;11.26;37.89;98382.44;5027331;28;20502;-67
2022/05/12 01:41:34;;;;;;;6.05;2.65;;;;;;;11.40;37.83;98388.28;5014417;28;20077;-67
2022/05/12 01:44:04;;;;;;;10.82;2.85;;;;;;;11.52;37.94;98379.78;5014135;28;20151;-67
2022/05/12 01:46:31;;;;;;;5.93;2.42;;;;;;;11.62;37.82;98384.81;4996580;28;20157;-68
2022/05/12 01:48:59;;;;;;;7.72;2.58;;;;;;;11.72;36.95;98378.66;5014579;28;20053;-67
2022/05/12 01:51:27;;;;;;;4.80;2.40;;;;;;;11.82;36.69;98383.63;5014137;28;20478;-66
2022/05/12 01:53:54;;;;;;;10.00;2.30;;;;;;;11.87;36.45;98380.53;5013782;28;20460;-67
2022/05/12 01:56:21;;;;;;;6.18;2.83;;;;;;;11.97;36.50;98385.53;5014174;28;20046;-67
2022/05/12 01:58:48;;;;;;;6.63;2.78;;;;;;;12.03;36.10;98384.03;5014141;28;20460;-66
2022/05/12 02:01:15;;;;;;;5.75;2.60;;;;;;;12.02;36.47;98390.78;5013890;28;20095;-66
2022/05/12 02:03:42;;;;;;;5.85;2.10;;;;;;;12.00;36.48;98376.41;5014014;28;20049;-67
2022/05/12 02:06:09;;;;;;;8.45;2.47;;;;;;;12.00;36.04;98379.19;5013973;28;20037;-66
2022/05/12 02:08:36;;;;;;;8.85;3.30;;;;;;;12.01;36.20;98375.22;5013672;28;20513;-66
2022/05/12 02:11:03;;;;;;;7.30;2.72;;;;;;;12.03;35.98;98378.47;5013761;28;20468;-66
2022/05/12 02:13:31;;;;;;;7.80;2.65;;;;;;;12.02;36.08;98374.03;5012234;28;20425;-67
2022/05/12 02:15:58;;;;;;;13.02;2.75;;;;;;;12.06;36.10;98371.34;5013721;28;20042;-67
2022/05/12 02:18:27;;;;;;;10.77;2.75;;;;;;;12.04;35.51;98377.28;5026831;28;20064;-66
2022/05/12 02:20:54;;;;;;;9.07;2.97;;;;;;;12.05;36.04;98381.66;5021431;28;20068;-67
2022/05/12 02:23:21;;;;;;;5.85;2.92;;;;;;;12.02;35.93;98379.63;5013415;28;20144;-67
2022/05/12 02:25:48;;;;;;;12.05;3.08;;;;;;;12.00;35.37;98379.19;5013950;28;20109;-67
2022/05/12 02:28:15;;;;;;;5.63;2.38;;;;;;;12.03;35.99;98378.47;5013294;28;20050;-67
2022/05/12 02:30:42;;;;;;;7.43;3.25;;;;;;;12.04;35.44;98388.44;4990919;28;20100;-67
2022/05/12 02:33:10;;;;;;;5.57;3.28;;;;;;;12.10;35.61;98386.13;5013053;28;20050;-67
2022/05/12 02:35:39;;;;;;;9.95;2.95;;;;;;;12.15;35.50;98371.91;4996070;28;20148;-66
2022/05/12 02:38:07;;;;;;;7.25;2.78;;;;;;;12.20;35.54;98374.38;5013633;28;20049;-64
2022/05/12 02:40:34;;;;;;;6.55;2.80;;;;;;;12.23;35.78;98382.78;5013559;28;20058;-64
2022/05/12 02:43:01;;;;;;;5.05;2.65;;;;;;;12.22;35.74;98369.22;5013249;28;20046;-64
2022/05/12 02:45:29;;;;;;;14.50;3.35;;;;;;;12.25;35.86;98380.44;4995907;28;20119;-65
2022/05/12 02:47:56;;;;;;;5.68;2.63;;;;;;;12.29;35.54;98374.94;5013205;28;20140;-64
2022/05/12 02:50:23;;;;;;;10.18;3.20;;;;;;;12.35;35.76;98376.25;5013341;28;20127;-64
2022/05/12 02:52:50;;;;;;;12.10;2.85;;;;;;;12.33;35.82;98376.63;5013124;28;20194;-64
2022/05/12 02:55:17;;;;;;;11.27;3.40;;;;;;;12.34;36.10;98372.63;5013096;28;20045;-65
2022/05/12 02:57:44;;;;;;;7.55;3.30;;;;;;;12.33;35.85;98371.03;5012975;28;20504;-64
2022/05/12 03:00:16;;;;;;;8.10;3.10;;;;;;;12.34;35.60;98372.63;5012990;28;20509;-64
2022/05/12 03:02:44;;;;;;;6.70;3.38;;;;;;;12.32;35.85;98374.97;5012947;28;20041;-64
2022/05/12 03:05:12;;;;;;;11.93;3.10;;;;;;;12.30;35.79;98370.97;4995422;28;20136;-63
2022/05/12 03:07:40;;;;;;;10.60;2.92;;;;;;;12.29;35.83;98369.38;5019846;28;20053;-64
2022/05/12 03:10:08;;;;;;;6.70;3.05;;;;;;;12.31;36.15;98362.22;5023534;28;20588;-64
2022/05/12 03:12:37;;;;;;;12.40;3.30;;;;;;;12.35;36.29;98360.28;5012528;28;20046;-64
2022/05/12 03:15:05;;;;;;;7.45;3.67;;;;;;;12.41;36.06;98353.22;4996031;28;20311;-63
2022/05/12 03:17:34;;;;;;;14.98;6.22;;;;;;;12.49;35.84;98356.94;5011572;28;20534;-64
2022/05/12 03:20:03;;;;;;;9.55;2.95;;;;;;;12.56;35.65;98363.44;5012570;28;20062;-64
2022/05/12 03:22:30;;;;;;;5.72;2.90;;;;;;;12.62;35.90;98345.19;5012840;28;20137;-63
2022/05/12 03:24:57;;;;;;;8.80;3.42;;;;;;;12.77;35.80;98347.00;5012796;28;20497;-64
2022/05/12 03:27:25;;;;;;;10.20;4.13;;;;;;;12.87;35.55;98346.38;5012413;28;20073;-63
2022/05/12 03:29:52;;;;;;;9.27;3.40;;;;;;;12.93;35.44;98346.06;5012681;28;20070;-65
2022/05/12 03:32:19;;;;;;;7.85;2.60;;;;;;;12.96;35.79;98339.72;5012624;28;20136;-64
2022/05/12 03:34:45;;;;;;;11.52;2.70;;;;;;;13.01;35.59;98337.44;5012592;28;20445;-63
2022/05/12 03:37:13;;;;;;;9.43;3.50;;;;;;;13.06;35.97;98341.88;5012580;28;20421;-63
2022/05/12 03:39:43;;;;;;;7.68;3.10;;;;;;;13.09;35.94;98338.34;4996824;28;20046;-64
2022/05/12 03:42:12;;;;;;;7.30;2.70;;;;;;;13.11;35.97;98338.78;4992842;28;20117;-64
2022/05/12 03:44:53;;;;;;;10.32;3.80;;;;;;;13.11;36.02;98339.56;4993109;28;20074;-65
2022/05/12 03:47:27;;;;;;;12.20;3.28;;;;;;;13.08;35.96;98351.50;4992918;28;20060;-64
2022/05/12 03:49:59;;;;;;;6.50;2.78;;;;;;;13.08;35.95;98353.50;4992999;28;20532;-64
2022/05/12 03:52:26;;;;;;;8.13;3.22;;;;;;;13.10;35.88;98365.88;4992980;28;20054;-63
2022/05/12 03:54:53;;;;;;;11.45;2.83;;;;;;;13.06;36.09;98362.25;4992607;28;20161;-64
2022/05/12 03:57:23;;;;;;;15.60;3.25;;;;;;;13.04;36.21;98356.22;4992879;28;20054;-64
2022/05/12 03:59:50;;;;;;;11.18;3.45;;;;;;;13.06;36.26;98358.66;4997710;28;20437;-64
2022/05/12 04:02:19;;;;;;;10.95;3.47;;;;;;;13.03;36.30;98353.81;5012487;28;20064;-65
2022/05/12 04:04:48;;;;;;;13.32;3.67;;;;;;;13.03;36.24;98360.22;5012453;28;20049;-63
2022/05/12 04:07:18;;;;;;;11.80;2.95;;;;;;;13.00;36.43;98349.00;5012300;28;20473;-64
2022/05/12 04:09:46;;;;;;;;;;;;;;;12.94;36.80;98352.06;5013410;28;20058;-64
2022/05/12 04:12:13;;;;;;;6.97;3.25;;;;;;;13.00;36.46;98354.56;5012096;28;19932;-65
2022/05/12 04:14:42;;;;;;;10.00;3.75;;;;;;;13.11;36.45;98352.75;5012260;28;20077;-63
2022/05/12 04:17:13;;;;;;;7.18;3.45;;;;;;;13.14;36.64;98349.19;5011946;28;20058;-64
2022/05/12 04:19:41;;;;;;;8.52;3.13;;;;;;;13.19;36.50;98352.44;5013080;28;20525;-65
2022/05/12 04:22:08;;;;;;;7.05;3.10;;;;;;;13.25;36.53;98344.53;5011992;28;20084;-64
2022/05/12 04:24:35;;;;;;;7.88;3.42;;;;;;;13.36;36.54;98343.50;5013483;28;20061;-64
2022/05/12 04:27:03;;;;;;;6.93;3.75;;;;;;;13.49;36.29;98344.03;5016065;28;20069;-64
2022/05/12 04:29:30;;;;;;;8.95;2.75;;;;;;;13.63;36.32;98344.22;5029358;28;20055;-64
2022/05/12 04:31:57;;;;;;;12.57;3.70;;;;;;;13.82;36.11;98341.22;5035222;28;20140;-65
2022/05/12 04:37:09;;;;;;;5.60;2.70;;;;;;;14.02;36.20;98334.25;5035587;28;20386;-63
2022/05/12 04:39:37;;;;;;;6.78;2.97;;;;;;;14.10;36.13;98324.75;5003228;28;20060;-63
2022/05/12 04:42:04;;;;;;;4.90;2.67;;;;;;;14.17;36.05;98324.81;5014350;28;20077;-64
2022/05/12 04:44:31;;;;;;;9.02;2.90;;;;;;;14.18;36.29;98315.25;5016225;28;20057;-64
2022/05/12 04:46:58;;;;;;;6.68;2.78;;;;;;;14.17;36.53;98316.41;5015404;28;20072;-64
2022/05/12 04:49:26;;;;;;;5.75;2.90;;;;;;;14.18;36.80;98299.25;5015306;28;20080;-64
2022/05/12 04:51:53;;;;;;;12.93;2.72;;;;;;;14.33;36.53;98306.59;4997457;28;20584;-65
2022/05/12 04:54:24;;;;;;;10.00;3.28;;;;;;;14.43;36.41;98307.88;5015344;28;20611;-65
2022/05/12 04:56:51;;;;;;;7.97;3.08;;;;;;;14.40;36.67;98311.47;5014943;28;20046;-65
2022/05/12 04:59:18;;;;;;;132.82;10.43;;;;;;;14.38;36.79;98308.25;5015290;28;20075;-64
2022/05/12 05:01:45;;;;;;;7.03;3.08;;;;;;;14.33;37.25;98303.03;4997379;28;20049;-65
2022/05/12 05:04:12;;;;;;;6.55;3.17;;;;;;;14.25;37.55;98296.56;4997607;28;20042;-65
2022/05/12 05:06:39;;;;;;;9.10;3.20;;;;;;;14.24;37.36;98296.97;5015033;28;20069;-64
2022/05/12 05:09:06;;;;;;;15.38;3.15;;;;;;;14.28;37.29;98292.19;5015366;28;20421;-65
2022/05/12 05:11:37;;;;;;;9.82;2.75;;;;;;;14.41;37.38;98299.06;5014962;28;20041;-65
2022/05/12 05:14:05;;;;;;;7.72;2.88;;;;;;;14.47;37.50;98289.13;5015007;28;20053;-64
2022/05/12 05:16:32;;;;;;;8.20;3.30;;;;;;;14.59;37.25;98291.59;5014916;28;20042;-64
2022/05/12 05:19:01;;;;;;;12.65;2.70;;;;;;;14.61;37.33;98289.22;5024534;28;20061;-64
2022/05/12 05:21:28;;;;;;;7.88;2.90;;;;;;;14.77;37.14;98292.53;5034243;28;20065;-64
2022/05/12 05:23:55;;;;;;;15.70;3.80;;;;;;;14.83;36.95;98290.19;5035106;28;20045;-65
2022/05/12 05:26:22;;;;;;;11.50;3.50;;;;;;;14.91;37.01;98287.03;5034274;28;20132;-64
2022/05/12 05:28:49;;;;;;;19.00;3.22;;;;;;;15.11;36.51;98279.13;5013004;28;20553;-64
2022/05/12 05:31:16;;;;;;;10.50;3.13;;;;;;;15.30;36.28;98276.81;5014390;28;20462;-64
2022/05/12 05:33:43;;;;;;;10.35;3.83;;;;;;;15.45;36.60;98278.50;5014567;28;20564;-64
2022/05/12 05:36:11;;;;;;;18.92;3.45;;;;;;;15.80;36.26;98289.00;4995544;28;20069;-64
2022/05/12 05:38:38;;;;;;;8.65;2.80;;;;;;;16.59;35.21;98285.88;5014240;28;20073;-63
2022/05/12 05:41:05;;;;;;;18.42;3.83;;;;;;;17.20;34.32;98288.16;5014074;28;20054;-63
2022/05/12 05:43:32;;;;;;;13.85;3.28;;;;;;;17.37;33.96;98278.84;5014215;28;20129;-64
2022/05/12 05:45:59;;;;;;;13.30;3.88;;;;;;;17.30;33.73;98281.69;5014354;28;20531;-63
2022/05/12 05:48:26;;;;;;;8.82;3.33;;;;;;;17.15;33.98;98268.91;5014199;28;20053;-64
2022/05/12 05:53:39;;;;;;;11.70;2.90;;;;;;;17.93;32.67;98267.31;5014117;28;20060;-64
2022/05/12 05:56:14;;;;;;;6.78;3.08;;;;;;;19.03;31.33;98265.97;5014062;28;20077;-64
2022/05/12 05:58:43;;;;;;;12.35;3.42;;;;;;;19.29;31.25;98272.94;5014414;28;20054;-64
2022/05/12 06:01:11;;;;;;;11.80;3.60;;;;;;;19.23;31.09;98268.97;5014044;28;20049;-63
2022/05/12 06:03:39;;;;;;;13.38;3.55;;;;;;;19.29;30.99;98270.13;5014525;28;20056;-64
2022/05/12 06:06:06;;;;;;;7.13;3.50;;;;;;;22.19;27.18;98259.75;5014104;28;20049;-63
2022/05/12 06:08:33;;;;;;;9.75;3.53;;;;;;;23.11;26.02;98262.66;5027915;28;20053;-63
2022/05/12 06:11:04;;;;;;;11.00;3.55;;;;;;;22.58;26.33;98265.28;5033643;28;20049;-63
2022/05/12 06:13:33;;;;;;;13.65;4.10;;;;;;;21.82;27.55;98263.06;5029359;28;20050;-63
2022/05/12 06:16:02;;;;;;;19.30;3.50;;;;;;;20.62;29.02;98265.38;5013719;28;20042;-63
2022/05/12 06:18:29;;;;;;;10.13;2.67;;;;;;;19.76;30.12;98250.19;5013319;28;20538;-64
2022/05/12 06:20:56;;;;;;;10.45;3.08;;;;;;;19.35;30.61;98243.06;5013425;28;20062;-63
2022/05/12 06:23:23;;;;;;;8.80;3.38;;;;;;;19.04;31.19;98236.56;5013786;28;20149;-63
2022/05/12 06:25:50;;;;;;;7.30;3.92;;;;;;;18.70;31.78;98235.72;5014093;28;20058;-63
2022/05/12 06:28:18;;;;;;;7.88;3.40;;;;;;;18.37;32.07;98235.63;5013300;28;20056;-64
2022/05/12 06:30:45;;;;;;;9.75;2.95;;;;;;;18.22;32.41;98237.75;5013790;28;20082;-64
2022/05/12 06:33:19;;;;;;;9.20;3.20;;;;;;;18.44;32.08;98232.78;5013335;28;20113;-65
2022/05/12 06:35:48;;;;;;;11.20;3.08;;;;;;;18.84;31.90;98218.69;5013313;28;20093;-64
2022/05/12 06:38:15;;;;;;;21.48;3.25;;;;;;;19.22;31.39;98219.44;5013071;28;20060;-64
2022/05/12 06:40:42;;;;;;;8.73;3.33;;;;;;;19.81;30.54;98221.47;4989422;28;20054;-64
2022/05/12 06:43:09;;;;;;;15.57;2.38;;;;;;;20.54;29.57;98215.84;4993635;28;20501;-64
2022/05/12 06:45:36;;;;;;;6.57;2.45;;;;;;;20.77;29.37;98210.19;4993772;28;20128;-65
2022/05/12 06:48:04;;;;;;;7.03;2.38;;;;;;;21.38;28.68;98210.63;4993018;28;20042;-64
2022/05/12 06:50:31;;;;;;;12.10;2.80;;;;;;;21.72;28.01;98213.88;4993638;28;20485;-64
2022/05/12 06:53:01;;;;;;;14.98;2.90;;;;;;;21.69;27.94;98214.75;4976453;28;20054;-64
2022/05/12 06:55:29;;;;;;;6.57;2.72;;;;;;;21.48;27.76;98209.56;4993466;28;20054;-64
2022/05/12 06:57:57;;;;;;;8.18;2.35;;;;;;;21.34;28.14;98205.03;4993413;28;20193;-65
2022/05/12 07:00:25;;;;;;;11.45;3.17;;;;;;;21.86;27.74;98205.09;4993531;28;20088;-64
2022/05/12 07:02:52;;;;;;;14.70;2.97;;;;;;;22.38;27.02;98213.56;5000824;28;20098;-64
2022/05/12 07:05:25;;;;;;;8.70;2.55;;;;;;;22.25;27.41;98213.47;5012729;28;20413;-63
2022/05/12 07:07:54;;;;;;;15.38;4.07;;;;;;;22.27;27.37;98205.31;5011527;28;20056;-64
2022/05/12 07:10:24;;;;;;;33.33;13.85;;;;;;;23.05;26.83;98199.19;5012755;28;20049;-64
2022/05/12 07:12:52;;;;;;;17.42;3.70;;;;;;;26.69;22.71;98184.66;5012887;28;20160;-65
2022/05/12 07:15:21;;;;;;;6.15;2.38;;;;;;;27.49;22.07;98178.63;5012863;28;20104;-65
2022/05/12 07:17:48;;;;;;;;;;;;;;;28.27;21.39;98188.72;5013202;28;20042;-64
2022/05/12 07:28:35;;;;;;;13.75;2.78;;;;;;;32.36;17.45;98178.97;5012328;28;20501;-64
2022/05/12 07:31:04;;;;;;;9.02;2.40;;;;;;;31.66;17.50;98172.00;5012725;28;20070;-63
2022/05/12 07:33:41;;;;;;;6.70;2.35;;;;;;;32.23;17.21;98180.66;5012579;28;20444;-65
2022/05/12 07:36:23;;;;;;;6.13;2.45;;;;;;;30.87;18.73;98188.03;5012618;28;20046;-64
2022/05/12 07:38:50;;;;;;;6.35;2.10;;;;;;;29.65;19.38;98177.41;5004142;28;20074;-64
2022/05/12 07:41:18;;;;;;;3.83;2.25;;;;;;;29.11;20.20;98171.38;4992947;28;20058;-65
2022/05/12 07:43:46;;;;;;;9.13;2.40;;;;;;;29.70;19.30;98156.69;4992818;28;20046;-64
2022/05/12 07:46:17;;;;;;;3.22;2.15;;;;;;;33.11;16.32;98158.97;4992898;28;20042;-65
2022/05/12 07:48:44;;;;;;;8.43;2.38;;;;;;;36.21;13.86;98154.19;4992909;28;20568;-65
2022/05/12 07:51:12;;;;;;;6.35;2.42;;;;;;;36.55;13.45;98138.06;4992634;28;20086;-65
2022/05/12 07:53:39;;;;;;;77.32;34.65;;;;;;;35.30;14.57;98149.22;4992428;28;20060;-65
2022/05/12 07:56:07;;;;;;;7.40;2.83;;;;;;;34.47;15.03;98146.59;4992832;28;20133;-64
2022/05/12 07:58:37;;;;;;;3.03;1.80;;;;;;;33.98;15.51;98145.28;4992658;28;20497;-65
2022/05/12 08:01:07;;;;;;;5.47;2.50;;;;;;;34.78;15.10;98157.84;4996755;28;20058;-64
2022/05/12 08:03:34;;;;;;;4.47;2.40;;;;;;;38.55;12.37;98142.69;4996524;28;20057;-64
2022/05/12 08:06:01;;;;;;;6.88;2.88;;;;;;;40.90;10.57;98142.03;4996846;28;20050;-65
2022/05/12 08:08:28;;;;;;;10.18;2.88;;;;;;;42.27;9.67;98134.09;4996341;28;20046;-64
2022/05/12 08:10:56;;;;;;;6.63;2.30;;;;;;;43.29;9.06;98136.59;4996549;28;20466;-64
2022/05/12 08:13:25;;;;;;;9.52;2.28;;;;;;;39.64;11.44;98133.03;4996713;28;20054;-65
2022/05/12 08:15:53;;;;;;;3.60;2.05;;;;;;;36.58;13.47;98131.19;4997098;28;20055;-65
2022/05/12 08:18:23;;;;;;;4.88;2.05;;;;;;;33.23;15.60;98119.44;4996267;28;20054;-64
2022/05/12 08:20:51;;;;;;;6.07;2.08;;;;;;;32.53;16.49;98125.13;4978773;28;20058;-64
2022/05/12 08:23:18;;;;;;;4.25;2.25;;;;;;;30.95;17.51;98114.47;4996268;28;20425;-64
2022/05/12 08:25:46;;;;;;;7.90;2.65;;;;;;;28.85;19.93;98113.81;4996225;28;20048;-65
2022/05/12 08:28:15;;;;;;;4.03;1.95;;;;;;;27.58;21.10;98110.03;5006660;28;20046;-65
2022/05/12 08:30:44;;;;;;;4.35;2.58;;;;;;;27.66;21.27;98109.22;5015417;28;20398;-64
2022/05/12 08:33:12;;;;;;;7.22;2.03;;;;;;;28.69;20.34;98099.97;5015470;28;20053;-64
2022/05/12 08:35:40;;;;;;;7.30;2.70;;;;;;;29.80;19.26;98092.19;5015596;28;20136;-64
2022/05/12 08:38:07;;;;;;;5.13;2.78;;;;;;;29.17;19.86;98080.63;5015507;28;20137;-65
2022/05/12 08:41:12;;;;;;;6.03;1.98;;;;;;;29.95;19.66;98092.16;5015438;28;20416;-65
2022/05/12 08:43:45;;;;;;;8.07;2.75;;;;;;;28.70;21.14;98095.81;4998328;28;20137;-63
2022/05/12 08:46:22;;;;;;;6.90;3.00;;;;;;;31.29;18.64;98088.50;5015656;28;20054;-64
2022/05/12 08:48:59;;;;;;;5.18;2.67;;;;;;;35.19;15.36;98098.03;5015481;28;20421;-65
2022/05/12 08:51:35;;;;;;;5.63;2.53;;;;;;;36.19;14.44;98064.16;4999040;28;20054;-65
2022/05/12 08:54:11;;;;;;;6.38;2.17;;;;;;;34.63;15.53;98073.53;5015283;28;20064;-64
2022/05/12 08:56:38;;;;;;;6.30;2.28;;;;;;;32.43;17.91;98057.53;5014954;28;20049;-64
2022/05/12 08:59:05;;;;;;;12.13;2.33;;;;;;;32.03;18.37;98062.78;5015250;28;20046;-65
2022/05/12 09:01:57;;;;;;;4.68;2.55;;;;;;;36.65;14.80;98063.16;5015081;28;20054;-64
2022/05/12 09:04:50;;;;;;;9.00;2.67;;;;;;;41.91;11.42;98045.78;5015079;28;20042;-65
2022/05/12 09:07:28;;;;;;;6.57;2.53;;;;;;;42.21;11.42;98045.78;5007590;28;20057;-65
2022/05/12 09:10:36;;;;;;;6.25;2.47;;;;;;;44.53;10.01;98057.13;5014810;28;20053;-66
2022/05/12 09:13:24;;;;;;;8.57;2.38;;;;;;;42.99;10.73;98050.41;4966652;28;20144;-66
2022/05/12 09:16:04;;;;;;;24.50;4.70;;;;;;;43.46;10.52;98037.94;5014757;28;20045;-65
2022/05/12 09:18:34;;;;;;;6.50;2.75;;;;;;;44.15;9.92;98042.00;4997008;28;20054;-65
2022/05/12 09:21:07;;;;;;;6.45;2.20;;;;;;;43.08;9.93;98043.97;5014367;28;20085;-65
2022/05/12 09:23:35;;;;;;;8.00;2.65;;;;;;;44.42;9.38;98051.75;5015479;28;20060;-64
2022/05/12 09:26:31;;;;;;;3.05;1.98;;;;;;;46.61;8.18;98040.88;5014652;28;20049;-65
2022/05/12 09:29:08;;;;;;;7.68;2.08;;;;;;;46.38;7.80;98039.06;5014838;28;20056;-64
2022/05/12 09:31:35;;;;;;;8.80;1.77;;;;;;;45.40;8.19;98036.06;5014531;28;20509;-65
2022/05/12 09:34:31;;;;;;;10.43;1.47;;;;;;;40.98;9.64;98032.78;5014541;28;20058;-65
2022/05/12 09:37:16;;;;;;;4.13;1.70;;;;;;;35.94;12.36;98035.72;5014250;28;20050;-69
2022/05/12 09:39:52;;;;;;;3.20;1.70;;;;;;;32.77;15.13;98029.69;5014244;28;20057;-65
2022/05/12 09:42:28;;;;;;;5.82;1.65;;;;;;;30.91;17.13;98036.38;5007053;28;20054;-63
2022/05/12 09:45:02;;;;;;;8.90;2.83;;;;;;;29.65;18.57;98034.09;5013994;28;20045;-64
2022/05/12 09:47:32;;;;;;;7.20;2.35;;;;;;;28.94;19.04;98033.56;5014168;28;20576;-65
2022/05/12 09:50:17;;;;;;;;;;;;;;;28.07;20.39;98033.31;5014660;28;20049;-63
2022/05/12 09:53:06;;;;;;;5.00;2.72;;;;;;;27.56;21.01;98021.94;5014154;28;20007;-65
2022/05/12 09:55:36;;;;;;;5.38;2.47;;;;;;;27.39;21.46;98025.69;5014128;28;20394;-64
2022/05/12 09:58:49;;;;;;;7.72;3.03;;;;;;;27.16;21.95;98023.50;5013600;28;20050;-64
2022/05/12 10:01:22;;;;;;;5.85;2.95;;;;;;;27.07;22.32;98021.47;5013927;28;20077;-64
2022/05/12 10:09:53;;;;;;;7.95;2.42;;;;;;;25.65;24.84;98008.22;5013779;28;20053;-64
2022/05/12 10:12:34;;;;;;;5.13;2.47;;;;;;;25.17;25.47;98015.44;5013365;28;20049;-63
2022/05/12 10:15:16;;;;;;;9.75;4.28;;;;;;;24.91;26.01;98010.38;5012958;28;20050;-64
2022/05/12 10:18:08;;;;;;;7.32;2.60;;;;;;;24.76;25.85;98015.84;5013613;28;20124;-65
2022/05/12 10:20:42;;;;;;;7.15;2.90;;;;;;;24.72;25.90;98014.38;4995835;28;20062;-65
2022/05/12 10:23:22;;;;;;;5.45;2.10;;;;;;;24.69;25.91;98003.94;5013170;28;20054;-65
2022/05/12 10:26:03;;;;;;;5.82;2.30;;;;;;;24.74;26.00;97998.44;5013481;28;20520;-65
2022/05/12 10:28:55;;;;;;;5.10;2.20;;;;;;;24.71;25.76;97984.34;5013366;28;20038;-65
2022/05/12 10:31:23;;;;;;;5.18;2.40;;;;;;;24.64;26.03;97985.41;5013317;28;20245;-65
2022/05/12 10:33:59;;;;;;;6.63;2.30;;;;;;;24.59;26.52;97993.72;5013584;28;20081;-64
2022/05/12 10:36:37;;;;;;;10.23;2.63;;;;;;;24.65;26.30;97986.19;4979106;28;20058;-65
2022/05/12 10:39:23;;;;;;;7.18;1.85;;;;;;;24.68;25.77;97974.69;5006647;28;20102;-65
2022/05/12 10:42:11;;;;;;;3.45;1.92;;;;;;;24.39;26.36;97976.22;4993575;28;20161;-67
2022/05/12 10:45:01;;;;;;;8.15;2.10;;;;;;;24.10;26.91;97978.50;4994584;28;20074;-65
2022/05/12 10:47:58;;;;;;;6.22;2.08;;;;;;;24.16;26.71;97966.06;4993605;28;20046;-65
2022/05/12 10:50:30;;;;;;;7.15;1.75;;;;;;;24.44;26.48;97961.38;4993882;28;20088;-65
2022/05/12 10:53:34;;;;;;;3.50;2.08;;;;;;;24.38;26.64;97957.56;4993394;28;20046;-64
2022/05/12 10:56:04;;;;;;;4.28;1.90;;;;;;;24.16;26.74;97948.22;4960026;28;20073;-64
2022/05/12 10:58:37;;;;;;;6.75;1.85;;;;;;;24.09;27.17;97942.78;4993039;28;20160;-64
2022/05/12 11:01:19;;;;;;;6.93;2.05;;;;;;;23.91;27.45;97942.59;4993270;28;20433;-64
2022/05/12 11:04:13;;;;;;;6.72;2.33;;;;;;;23.59;27.78;97942.97;5006124;28;20069;-65
2022/05/12 11:06:55;;;;;;;6.07;3.67;;;;;;;23.24;28.20;97940.03;4995000;28;20103;-65
2022/05/12 11:09:25;;;;;;;4.65;2.38;;;;;;;23.11;28.23;97939.25;5012788;28;20513;-64
2022/05/12 11:11:58;;;;;;;9.15;2.10;;;;;;;22.92;28.12;97933.78;4995010;28;20069;-64
2022/05/12 11:14:36;;;;;;;6.88;2.10;;;;;;;22.78;28.57;97935.03;5013003;28;20505;-71
2022/05/12 11:17:09;;;;;;;4.57;1.88;;;;;;;22.80;28.70;97934.59;5012618;28;20050;-71
2022/05/12 11:19:39;;;;;;;5.07;1.90;;;;;;;22.94;28.43;97937.75;5012648;28;20100;-71
2022/05/12 11:22:19;;;;;;;4.03;2.15;;;;;;;23.19;28.28;97915.06;5012490;28;20479;-74
2022/05/12 11:24:53;;;;;;;8.13;2.10;;;;;;;23.61;27.78;97903.53;5012887;28;20145;-72
2022/05/12 11:31:33;;;;;;;5.93;2.45;;;;;;;24.10;27.30;97898.94;4968335;28;20153;-72
2022/05/12 11:34:05;;;;;;;6.30;2.45;;;;;;;24.07;27.70;97900.63;4990970;28;20078;-71
2022/05/12 11:36:53;;;;;;;6.72;2.33;;;;;;;23.87;28.21;97883.09;4997315;28;20082;-72
2022/05/12 11:39:39;;;;;;;4.55;2.00;;;;;;;23.66;28.50;97880.22;5006361;28;20077;-72
2022/05/12 11:42:25;;;;;;;4.10;2.00;;;;;;;23.45;28.68;97895.19;5016838;28;20054;-69
2022/05/12 11:44:59;;;;;;;3.88;2.10;;;;;;;23.20;28.97;97882.59;5016506;28;20141;-70
2022/05/12 11:47:53;;;;;;;3.90;2.40;;;;;;;23.17;28.93;97882.72;5016190;28;20046;-70
2022/05/12 11:50:56;;;;;;;12.10;2.95;;;;;;;23.22;29.01;97874.44;5016749;28;20054;-72
2022/05/12 11:53:27;;;;;;;12.15;2.08;;;;;;;23.27;29.13;97876.69;4986234;28;20542;-72
2022/05/12 11:56:09;;;;;;;6.07;2.30;;;;;;;23.22;29.46;97874.44;5016310;28;20049;-71
2022/05/12 11:58:45;;;;;;;7.32;2.22;;;;;;;23.21;29.49;97878.50;5016316;28;20065;-70
2022/05/12 12:01:33;;;;;;;6.30;1.80;;;;;;;23.27;29.53;97865.34;5016247;28;20450;-71
2022/05/12 12:04:03;;;;;;;3.08;1.95;;;;;;;23.38;29.67;97865.78;5015910;28;20054;-71
2022/05/12 12:06:47;;;;;;;8.77;2.35;;;;;;;23.59;29.36;97871.97;5015872;28;20133;-72
2022/05/12 12:09:55;;;;;;;5.20;2.25;;;;;;;23.61;29.22;97875.13;5015907;28;20077;-76
2022/05/12 12:12:40;;;;;;;4.60;2.72;;;;;;;23.46;29.78;97857.00;4986751;28;20505;-72
2022/05/12 12:15:09;;;;;;;4.95;2.20;;;;;;;23.34;29.83;97848.09;5016353;28;20046;-71
2022/05/12 12:17:40;;;;;;;3.30;2.08;;;;;;;23.24;30.12;97854.91;5015468;28;20054;-71